Time;durP1;ratioP1;P1;durP2;ratioP2;P2;SDS_P1;SDS_P2;PMS_P1;PMS_P2;Temp;Humidity;BMP_temperature;BMP_pressure;BME280_temperature;BME280_humidity;BME280_pressure;Samples;Min_cycle;Max_cycle;Signal;HPM_P1;HPM_P2
2024/01/03 15:21:38;;;;;;;23.88;9.60;;;8.80;99.90;;;;;;5065120;27;20986;-54
2024/01/03 15:24:04;;;;;;;25.63;9.70;;;8.70;1.00;;;;;;5063083;28;20392;-54
2024/01/03 15:26:30;;;;;;;24.90;10.65;;;8.70;1.00;;;;;;5064253;28;20033;-53
2024/01/03 15:28:56;;;;;;;21.80;9.40;;;8.70;99.90;;;;;;5063959;28;20035;-54
2024/01/03 15:31:23;;;;;;;20.83;8.50;;;8.60;99.90;;;;;;5074711;28;20020;-53
2024/01/03 15:33:49;;;;;;;24.17;10.20;;;8.60;99.90;;;;;;5072767;28;20039;-52
2024/01/03 15:36:17;;;;;;;21.88;9.75;;;8.60;1.00;;;;;;5070530;28;21069;-53
2024/01/03 15:38:43;;;;;;;21.85;9.93;;;8.60;99.90;;;;;;5071995;28;20101;-53
2024/01/03 15:41:09;;;;;;;20.55;8.27;;;8.50;1.00;;;;;;5071656;28;20033;-52
2024/01/03 15:43:36;;;;;;;22.48;8.60;;;8.50;1.00;;;;;;5069258;28;20028;-53
2024/01/03 15:46:03;;;;;;;20.27;8.40;;;8.50;1.00;;;;;;5065653;28;20031;-53
2024/01/03 15:48:28;;;;;;;22.17;8.50;;;8.50;99.90;;;;;;5065051;28;20476;-52
2024/01/03 15:50:54;;;;;;;26.77;10.60;;;8.50;1.00;;;;;;5064968;28;20028;-53
2024/01/03 15:53:20;;;;;;;26.80;11.45;;;8.50;99.90;;;;;;5065596;28;20035;-52
2024/01/03 15:55:46;;;;;;;23.83;9.30;;;8.50;99.90;;;;;;5065164;28;20046;-52
2024/01/03 15:58:11;;;;;;;25.20;11.45;;;8.50;13.70;;;;;;5065160;28;20024;-53
2024/01/03 16:00:37;;;;;;;25.40;11.68;;;8.50;1.00;;;;;;5065307;28;21191;-52
2024/01/03 16:03:06;;;;;;;31.85;12.43;;;8.50;99.90;;;;;;5063071;28;20090;-53
2024/01/03 16:05:32;;;;;;;32.25;13.77;;;8.50;99.90;;;;;;5063194;28;20060;-52
2024/01/03 16:07:58;;;;;;;27.60;10.05;;;8.40;99.90;;;;;;5065611;28;20112;-53
2024/01/03 16:10:23;;;;;;;21.30;10.65;;;8.40;99.90;;;;;;5065078;28;20027;-53
2024/01/03 16:12:49;;;;;;;31.65;14.27;;;8.40;99.90;;;;;;5071319;28;20127;-55
2024/01/03 16:15:15;;;;;;;27.77;12.88;;;8.40;99.90;;;;;;5071556;28;20024;-57
2024/01/03 16:17:41;;;;;;;22.75;9.35;;;8.30;99.90;;;;;;5070298;28;20025;-53
2024/01/03 16:20:07;;;;;;;22.67;11.20;;;8.30;99.90;;;;;;5073832;28;20540;-52
2024/01/03 16:22:33;;;;;;;27.27;11.68;;;8.30;99.90;;;;;;5065278;28;20107;-54
2024/01/03 16:25:00;;;;;;;24.05;11.40;;;8.30;99.90;;;;;;5068901;28;20116;-54
2024/01/03 16:27:26;;;;;;;23.35;10.80;;;8.30;99.90;;;;;;5072355;28;20127;-54
2024/01/03 16:29:51;;;;;;;23.20;12.00;;;8.30;99.90;;;;;;5073598;28;20544;-53
2024/01/03 16:32:23;;;;;;;27.25;11.10;;;8.20;99.90;;;;;;5072554;28;20031;-53
2024/01/03 16:34:49;;;;;;;26.23;12.73;;;8.20;99.90;;;;;;5068530;28;20379;-54
2024/01/03 16:37:14;;;;;;;32.20;14.93;;;8.20;99.90;;;;;;5048055;28;20028;-53
2024/01/03 16:39:42;;;;;;;28.63;14.05;;;8.20;99.90;;;;;;5047080;28;20060;-54
2024/01/03 16:42:09;;;;;;;30.25;13.38;;;8.20;99.90;;;;;;5048179;28;20059;-53
2024/01/03 16:44:34;;;;;;;34.40;14.70;;;8.20;99.90;;;;;;5046598;28;20477;-54
2024/01/03 16:47:00;;;;;;;27.65;13.82;;;8.20;99.90;;;;;;5046532;28;20027;-54
2024/01/03 16:49:26;;;;;;;26.20;13.07;;;8.20;99.90;;;;;;5044859;28;20032;-54
2024/01/03 16:51:52;;;;;;;30.05;13.85;;;8.20;99.90;;;;;;5046084;28;20036;-54
2024/01/03 16:54:18;;;;;;;36.47;15.07;;;8.20;99.90;;;;;;5046137;28;20041;-54
2024/01/03 16:56:45;;;;;;;39.60;15.35;;;8.20;99.90;;;;;;5078720;28;20112;-54
2024/01/03 16:59:13;;;;;;;33.63;13.90;;;8.20;99.90;;;;;;5047614;28;20025;-55
2024/01/03 17:01:39;;;;;;;33.22;15.70;;;8.30;99.90;;;;;;5047248;28;20046;-54
2024/01/03 17:04:06;;;;;;;40.67;15.23;;;8.20;99.90;;;;;;5047680;28;20120;-55
2024/01/03 17:06:38;;;;;;;32.05;15.30;;;8.30;99.90;;;;;;5047807;28;20035;-54
2024/01/03 17:09:05;;;;;;;36.83;14.50;;;8.30;99.90;;;;;;5047778;28;20111;-54
2024/01/03 17:11:31;;;;;;;36.72;15.18;;;8.40;36.30;;;;;;5047121;28;20060;-54
2024/01/03 17:13:57;;;;;;;33.15;14.43;;;8.40;97.40;;;;;;5047592;28;20384;-55
2024/01/03 17:16:23;;;;;;;29.30;13.07;;;8.50;99.90;;;;;;5047535;28;20028;-54
2024/01/03 17:18:54;;;;;;;34.30;13.00;;;8.50;91.80;;;;;;5047537;28;20036;-53
2024/01/03 17:21:21;;;;;;;37.47;17.83;;;8.50;90.50;;;;;;5046875;28;20448;-54
2024/01/03 17:23:50;;;;;;;37.13;16.40;;;8.40;90.50;;;;;;5047798;28;20029;-53
2024/01/03 17:26:20;;;;;;;34.17;15.35;;;8.40;91.40;;;;;;5047840;28;20295;-53
2024/01/03 17:28:47;;;;;;;30.45;14.68;;;8.40;95.10;;;;;;5047280;28;20044;-53
2024/01/03 17:31:13;;;;;;;33.13;15.75;;;8.40;99.90;;;;;;5047041;28;20055;-53
2024/01/03 17:33:40;;;;;;;27.65;13.50;;;8.50;90.60;;;;;;5047100;28;20653;-54
2024/01/03 17:36:07;;;;;;;33.13;14.07;;;8.50;89.70;;;;;;5047655;28;20406;-55
2024/01/03 17:38:33;;;;;;;25.77;12.30;;;8.40;99.50;;;;;;5047255;28;20117;-53
2024/01/03 17:41:06;;;;;;;27.25;10.85;;;8.50;99.90;;;;;;5047051;28;20052;-54
2024/01/03 17:43:34;;;;;;;24.48;12.52;;;8.50;83.00;;;;;;5045674;28;20029;-53
2024/01/03 17:45:59;;;;;;;30.05;12.73;;;8.60;99.90;;;;;;5047165;28;20086;-53
2024/01/03 17:48:26;;;;;;;33.28;13.05;;;8.60;99.90;;;;;;5046424;28;20032;-54
2024/01/03 17:50:52;;;;;;;27.60;12.05;;;8.60;99.90;;;;;;5044890;28;20036;-54
2024/01/03 17:53:17;;;;;;;23.40;10.27;;;8.60;99.90;;;;;;5046537;28;20032;-53
2024/01/03 17:55:44;;;;;;;28.75;10.43;;;8.70;99.90;;;;;;5078255;28;20110;-56
2024/01/03 17:58:10;;;;;;;24.73;10.27;;;8.70;99.90;;;;;;5046407;28;20072;-53
2024/01/03 18:00:36;;;;;;;25.13;11.48;;;8.70;99.90;;;;;;5045138;28;20130;-54
2024/01/03 18:03:02;;;;;;;21.38;9.93;;;8.80;97.10;;;;;;5045747;28;20032;-54
2024/01/03 18:05:27;;;;;;;22.13;9.32;;;8.80;93.50;;;;;;5044679;28;20029;-53
2024/01/03 18:07:53;;;;;;;20.98;9.32;;;8.80;99.20;;;;;;5046556;28;20039;-58
2024/01/03 18:10:19;;;;;;;20.17;8.23;;;8.90;99.90;;;;;;5046187;28;20120;-53
2024/01/03 18:12:44;;;;;;;20.27;8.07;;;8.90;98.60;;;;;;5046638;28;20114;-54
2024/01/03 18:15:10;;;;;;;20.23;8.07;;;8.90;99.60;;;;;;5046584;28;20124;-53
2024/01/03 18:17:41;;;;;;;19.30;8.45;;;9.00;97.80;;;;;;5045901;28;20036;-54
2024/01/03 18:20:09;;;;;;;19.63;7.72;;;8.90;97.90;;;;;;5046033;28;20060;-53
2024/01/03 18:22:37;;;;;;;20.60;8.27;;;9.00;98.30;;;;;;5046252;28;20221;-55
2024/01/03 18:25:04;;;;;;;22.05;8.93;;;9.00;98.80;;;;;;5046014;28;20361;-55
2024/01/03 18:27:30;;;;;;;22.40;8.90;;;9.00;98.30;;;;;;5045717;28;20116;-55
2024/01/03 18:29:57;;;;;;;19.60;8.15;;;9.00;97.90;;;;;;5045417;28;20296;-54
2024/01/03 18:32:26;;;;;;;21.88;8.35;;;9.00;99.50;;;;;;5045843;28;20060;-55
2024/01/03 18:34:54;;;;;;;21.58;8.40;;;8.90;99.80;;;;;;5045621;28;20041;-57
2024/01/03 18:37:20;;;;;;;19.95;8.15;;;9.00;98.90;;;;;;5045723;28;20140;-54
2024/01/03 18:39:47;;;;;;;19.25;7.80;;;9.10;98.30;;;;;;5045176;28;20576;-55
2024/01/03 18:42:12;;;;;;;21.20;9.40;;;9.00;98.90;;;;;;5045553;28;20036;-56
2024/01/03 18:44:38;;;;;;;23.05;9.85;;;9.00;98.60;;;;;;5045289;28;20105;-57
2024/01/03 18:47:05;;;;;;;21.90;9.25;;;9.00;98.50;;;;;;5045887;28;20036;-56
2024/01/03 18:49:30;;;;;;;24.30;9.67;;;8.90;97.90;;;;;;5045037;28;20039;-56
2024/01/03 18:51:56;;;;;;;21.05;8.15;;;8.90;99.10;;;;;;5045187;28;20029;-53
2024/01/03 18:54:22;;;;;;;21.85;9.23;;;8.90;99.70;;;;;;5045239;28;20044;-56
2024/01/03 18:56:47;;;;;;;22.73;9.88;;;8.90;99.90;;;;;;5045372;28;20146;-54
2024/01/03 18:59:14;;;;;;;28.02;9.85;;;8.90;96.80;;;;;;5045406;28;20105;-55
2024/01/03 19:01:40;;;;;;;20.95;8.50;;;8.90;92.60;;;;;;5045056;28;20059;-55
2024/01/03 19:04:08;;;;;;;19.60;8.82;;;8.80;92.80;;;;;;5045612;28;20672;-55
2024/01/03 19:06:34;;;;;;;21.55;7.78;;;8.80;90.30;;;;;;5047671;28;20493;-57
2024/01/03 19:09:00;;;;;;;19.75;9.25;;;8.80;92.30;;;;;;5050323;28;20025;-57
2024/01/03 19:11:25;;;;;;;23.58;9.77;;;8.70;93.10;;;;;;5049979;28;20032;-56
2024/01/03 19:13:51;;;;;;;18.27;7.90;;;8.80;93.50;;;;;;5050324;28;20056;-55
2024/01/03 19:16:18;;;;;;;17.95;7.57;;;8.90;91.00;;;;;;5050863;28;20959;-56
2024/01/03 19:18:44;;;;;;;22.88;8.95;;;8.90;94.00;;;;;;5048952;28;20090;-56
2024/01/03 19:21:09;;;;;;;21.50;7.95;;;8.80;92.80;;;;;;5046785;28;20060;-56
2024/01/03 19:23:35;;;;;;;19.77;7.35;;;8.90;89.90;;;;;;5045193;28;20056;-55
2024/01/03 19:26:01;;;;;;;14.60;5.90;;;8.90;93.90;;;;;;5045308;28;20110;-55
2024/01/03 19:28:26;;;;;;;11.68;3.75;;;9.00;94.10;;;;;;5045253;28;20039;-58
2024/01/03 19:30:52;;;;;;;14.55;4.95;;;9.10;94.80;;;;;;5044917;28;20107;-57
2024/01/03 19:33:18;;;;;;;13.43;4.82;;;9.10;92.60;;;;;;5045169;28;20025;-56
2024/01/03 19:35:43;;;;;;;9.57;3.92;;;9.10;92.50;;;;;;5044928;28;20025;-56
2024/01/03 19:38:09;;;;;;;7.38;2.92;;;9.30;91.30;;;;;;5045256;28;20063;-55
2024/01/03 19:40:35;;;;;;;8.07;3.42;;;9.20;92.20;;;;;;5045023;28;20036;-55
2024/01/03 19:43:01;;;;;;;13.10;3.95;;;9.30;90.30;;;;;;5044850;28;20026;-55
2024/01/03 19:45:26;;;;;;;10.00;4.18;;;9.30;83.90;;;;;;5044918;28;20128;-57
2024/01/03 19:47:52;;;;;;;10.23;3.53;;;9.30;82.40;;;;;;5045112;28;20029;-55
2024/01/03 19:50:18;;;;;;;9.32;3.60;;;9.20;82.00;;;;;;5045168;28;20029;-57
2024/01/03 19:52:43;;;;;;;12.65;4.28;;;9.20;87.00;;;;;;5044991;28;20096;-57
2024/01/03 21:00:50;;;;;;;34.70;10.73;;;8.60;87.00;;;;;;5062182;28;21085;-56
2024/01/03 21:03:15;;;;;;;31.42;9.68;;;8.50;92.00;;;;;;5062617;28;20068;-56
2024/01/03 21:05:41;;;;;;;21.60;7.75;;;8.50;98.80;;;;;;5061347;28;20514;-56
2024/01/03 21:08:06;;;;;;;14.95;6.25;;;8.50;98.80;;;;;;5063314;28;20372;-54
2024/01/03 21:10:32;;;;;;;16.25;6.22;;;8.60;98.50;;;;;;5063380;28;20388;-56
2024/01/03 21:12:58;;;;;;;17.95;5.40;;;8.60;98.40;;;;;;5061569;28;20379;-57
2024/01/03 21:15:23;;;;;;;25.83;8.50;;;8.60;90.70;;;;;;5057982;28;20044;-55
2024/01/03 21:17:49;;;;;;;21.10;8.10;;;8.50;90.40;;;;;;5052931;28;20040;-56
2024/01/03 21:20:15;;;;;;;19.17;7.28;;;8.60;89.50;;;;;;5062926;28;20036;-53
2024/01/03 21:22:40;;;;;;;23.75;7.55;;;8.60;91.40;;;;;;5063661;28;20097;-55
2024/01/03 21:25:07;;;;;;;30.20;9.32;;;8.60;89.40;;;;;;5063484;28;20024;-59
2024/01/03 21:27:32;;;;;;;28.77;10.30;;;8.60;99.90;;;;;;5062818;28;20040;-56
2024/01/03 21:29:58;;;;;;;26.40;9.45;;;8.70;88.30;;;;;;5063177;28;20021;-56
2024/01/03 21:32:24;;;;;;;30.02;8.32;;;8.70;92.60;;;;;;5062801;28;20036;-55
2024/01/03 21:34:49;;;;;;;24.23;9.10;;;8.60;88.30;;;;;;5061478;28;20024;-56
2024/01/03 21:37:15;;;;;;;31.60;8.65;;;8.70;93.00;;;;;;5061718;28;20036;-55
2024/01/03 21:39:42;;;;;;;28.73;8.38;;;8.90;97.20;;;;;;5062443;28;20043;-55
2024/01/03 21:42:07;;;;;;;26.70;7.35;;;8.90;90.80;;;;;;5062518;28;20486;-55
2024/01/03 21:44:33;;;;;;;23.63;8.60;;;8.90;98.40;;;;;;5060949;28;20029;-56
2024/01/03 21:46:59;;;;;;;22.80;6.68;;;8.90;90.30;;;;;;5062442;28;20075;-57
2024/01/03 21:49:24;;;;;;;15.98;5.88;;;8.90;86.40;;;;;;5062326;28;20661;-55
2024/01/03 21:51:50;;;;;;;24.17;7.18;;;8.80;90.50;;;;;;5062369;28;20029;-56
2024/01/03 21:54:15;;;;;;;29.30;10.00;;;8.80;88.70;;;;;;5054769;28;20396;-54
2024/01/03 21:56:41;;;;;;;30.80;9.27;;;8.90;90.60;;;;;;5062190;28;20223;-56
2024/01/03 21:59:07;;;;;;;28.38;8.57;;;8.90;89.50;;;;;;5061591;28;20084;-57
2024/01/03 22:01:33;;;;;;;22.80;7.25;;;8.90;89.70;;;;;;5061181;28;20031;-59
2024/01/03 22:03:59;;;;;;;28.23;8.53;;;9.00;89.50;;;;;;5062014;28;20029;-56
2024/01/03 22:06:25;;;;;;;28.08;8.55;;;9.00;90.90;;;;;;5062032;28;20105;-57
2024/01/03 22:08:50;;;;;;;38.03;14.05;;;9.00;89.90;;;;;;5060198;28;20028;-56
2024/01/03 22:11:16;;;;;;;25.67;7.90;;;9.10;91.20;;;;;;5051709;28;20060;-56
2024/01/03 22:13:42;;;;;;;20.15;7.22;;;9.10;94.70;;;;;;5046465;28;20466;-56
2024/01/03 22:16:08;;;;;;;33.55;9.43;;;9.10;94.90;;;;;;5048371;28;20048;-57
2024/01/03 22:18:35;;;;;;;20.75;7.07;;;9.10;97.10;;;;;;5047928;28;20100;-56
2024/01/03 22:21:01;;;;;;;16.75;5.93;;;9.20;99.90;;;;;;5048123;28;20025;-57
2024/01/03 22:23:27;;;;;;;14.27;4.45;;;9.20;99.90;;;;;;5046242;28;20074;-57
2024/01/03 22:25:52;;;;;;;20.42;5.72;;;9.20;99.00;;;;;;5048343;28;20044;-59
2024/01/03 22:28:22;;;;;;;25.45;7.88;;;9.30;99.90;;;;;;5046855;28;20033;-54
2024/01/03 22:30:48;;;;;;;16.98;5.72;;;9.20;96.90;;;;;;5049022;28;20033;-59
